Time;durP1;ratioP1;P1;durP2;ratioP2;P2;SDS_P1;SDS_P2;PMS_P1;PMS_P2;Temp;Humidity;BMP_temperature;BMP_pressure;BME280_temperature;BME280_humidity;BME280_pressure;Samples;Min_cycle;Max_cycle;Signal;HPM_P1;HPM_P2
2022/12/27 00:02:03;;;;;;;0.63;0.50;;;6.30;99.90;;;;;;4944060;29;20443;-68
2022/12/27 00:04:29;;;;;;;0.22;0.10;;;6.20;99.90;;;;;;4947253;28;20036;-69
2022/12/27 00:06:55;;;;;;;3.40;0.57;;;6.20;99.90;;;;;;4941552;29;20491;-68
2022/12/27 00:09:21;;;;;;;0.22;0.20;;;6.20;99.90;;;;;;4949485;29;20039;-69
2022/12/27 00:11:47;;;;;;;1.10;0.68;;;6.20;99.90;;;;;;4942963;29;20044;-69
2022/12/27 00:14:13;;;;;;;0.52;0.15;;;6.20;99.90;;;;;;4950335;28;20109;-69
2022/12/27 00:16:48;;;;;;;0.32;0.30;;;6.10;99.90;;;;;;4940146;29;20023;-68
2022/12/27 00:19:14;;;;;;;0.70;0.45;;;6.10;99.90;;;;;;4944830;29;20062;-68
2022/12/27 00:21:40;;;;;;;1.75;0.60;;;6.00;99.90;;;;;;4944342;29;20501;-69
2022/12/27 00:24:07;;;;;;;2.90;0.32;;;6.00;99.90;;;;;;4936162;28;20035;-68
2022/12/27 00:26:34;;;;;;;0.60;0.60;;;6.00;99.90;;;;;;4944921;29;20042;-69
2022/12/27 00:29:00;;;;;;;0.80;0.40;;;6.00;99.90;;;;;;4938625;29;20113;-69
2022/12/27 00:31:28;;;;;;;2.92;0.45;;;6.00;99.90;;;;;;4947906;29;20038;-69
2022/12/27 00:33:59;;;;;;;0.40;0.40;;;5.90;99.90;;;;;;4945530;28;20050;-68
2022/12/27 00:36:28;;;;;;;0.88;0.50;;;5.90;99.90;;;;;;4947691;29;20094;-69
2022/12/27 00:38:56;;;;;;;0.60;0.35;;;5.90;99.90;;;;;;4940531;29;20042;-69
2022/12/27 00:41:22;;;;;;;0.35;0.22;;;5.90;99.90;;;;;;4945701;29;20027;-69
2022/12/27 00:43:49;;;;;;;6.85;0.88;;;5.80;99.90;;;;;;4941037;29;20510;-69
2022/12/27 00:46:15;;;;;;;1.70;0.75;;;5.90;99.90;;;;;;4951190;28;20031;-69
2022/12/27 00:48:42;;;;;;;3.08;0.68;;;5.80;99.90;;;;;;4937699;29;20031;-68
2022/12/27 00:51:16;;;;;;;0.65;0.30;;;5.80;99.90;;;;;;4943605;29;20655;-69
2022/12/27 00:53:43;;;;;;;1.05;0.32;;;5.70;99.90;;;;;;4941747;29;20764;-68
2022/12/27 00:56:17;;;;;;;0.55;0.32;;;5.70;99.90;;;;;;4945006;29;20475;-69
2022/12/27 00:58:44;;;;;;;1.92;0.25;;;5.60;99.90;;;;;;4941943;29;20050;-69
2022/12/27 01:01:21;;;;;;;5.25;0.50;;;5.60;99.90;;;;;;4943905;29;20028;-69
2022/12/27 01:03:47;;;;;;;0.40;0.20;;;5.50;99.90;;;;;;4941226;29;20395;-69
2022/12/27 01:06:17;;;;;;;1.58;0.63;;;5.50;99.90;;;;;;4944175;29;20031;-68
2022/12/27 01:08:44;;;;;;;0.73;0.52;;;5.40;99.90;;;;;;4933557;29;20504;-69
2022/12/27 01:11:11;;;;;;;0.73;0.35;;;5.30;99.90;;;;;;4953249;23;20047;-70
2022/12/27 01:13:38;;;;;;;0.20;0.20;;;5.40;99.90;;;;;;4945889;29;20163;-70
2022/12/27 01:16:20;;;;;;;0.77;0.45;;;5.40;99.90;;;;;;4899984;29;20087;-70
2022/12/27 01:18:47;;;;;;;1.98;0.60;;;5.40;99.90;;;;;;4940321;29;20036;-70
2022/12/27 01:21:16;;;;;;;0.38;0.38;;;5.40;99.90;;;;;;4942803;28;20032;-70
2022/12/27 01:23:43;;;;;;;0.70;0.22;;;5.40;99.90;;;;;;4935917;29;20563;-70
2022/12/27 01:26:20;;;;;;;1.55;0.30;;;5.30;99.90;;;;;;4916797;29;20766;-70
2022/12/27 01:28:47;;;;;;;5.50;0.57;;;5.30;99.90;;;;;;4917416;29;20512;-70
2022/12/27 01:31:17;;;;;;;0.57;0.50;;;5.20;99.90;;;;;;4918488;29;20031;-70
2022/12/27 01:33:43;;;;;;;2.20;0.90;;;5.20;99.90;;;;;;4923696;29;20036;-71
2022/12/27 01:36:20;;;;;;;0.52;0.30;;;5.20;99.90;;;;;;4919416;29;20071;-70
2022/12/27 01:38:47;;;;;;;0.10;0.10;;;5.20;99.90;;;;;;4938321;29;20031;-70
2022/12/27 01:44:42;;;;;;;9.80;1.13;;;5.00;99.90;;;;;;4923051;29;20115;-70
2022/12/27 01:47:39;;;;;;;0.90;0.52;;;4.70;99.90;;;;;;4928004;29;20043;-70
2022/12/27 01:50:23;;;;;;;0.65;0.47;;;4.50;99.90;;;;;;4918700;29;20059;-70
2022/12/27 01:53:05;;;;;;;7.90;0.73;;;4.40;99.90;;;;;;4939523;29;20028;-70
2022/12/27 01:56:03;;;;;;;1.75;0.55;;;4.40;99.90;;;;;;4950061;29;20058;-70
2022/12/27 01:58:36;;;;;;;2.13;0.55;;;4.40;99.90;;;;;;4935105;29;20030;-70
2022/12/27 02:01:05;;;;;;;0.50;0.50;;;4.30;99.90;;;;;;4950438;28;20047;-70
2022/12/27 02:03:36;;;;;;;0.82;0.50;;;4.30;99.90;;;;;;4943595;29;20034;-70
2022/12/27 02:06:05;;;;;;;1.05;0.40;;;4.20;99.90;;;;;;4929770;29;20487;-70
2022/12/27 02:09:15;;;;;;;0.25;0.20;;;4.20;99.90;;;;;;4953388;28;20067;-70
2022/12/27 02:11:52;;;;;;;0.65;0.45;;;4.20;99.90;;;;;;4947650;28;20055;-70
2022/12/27 02:14:39;;;;;;;0.98;0.50;;;4.20;99.90;;;;;;4944572;29;20498;-70
2022/12/27 02:17:10;;;;;;;1.00;0.57;;;4.20;99.90;;;;;;4933778;29;20044;-70
2022/12/27 02:19:39;;;;;;;2.03;0.98;;;4.20;99.90;;;;;;4947916;28;20035;-70
2022/12/27 02:26:26;;;;;;;4.22;0.98;;;4.10;99.90;;;;;;4934226;29;20036;-70
2022/12/27 02:29:21;;;;;;;0.65;0.32;;;4.10;99.90;;;;;;4884612;29;20081;-69
2022/12/27 02:32:20;;;;;;;4.47;1.33;;;4.10;99.90;;;;;;4883896;29;20075;-70
2022/12/27 02:35:10;;;;;;;0.75;0.50;;;4.00;99.90;;;;;;4892895;29;20550;-69
2022/12/27 02:37:54;;;;;;;0.65;0.57;;;4.10;99.90;;;;;;4873288;29;20039;-70
2022/12/27 02:55:25;;;;;;;1.95;0.82;;;4.30;99.90;;;;;;4893110;29;20476;-69
2022/12/27 02:58:39;;;;;;;2.15;0.60;;;4.20;99.90;;;;;;4883941;29;20041;-70
2022/12/27 03:04:44;;;;;;;0.65;0.50;;;4.10;99.90;;;;;;4943178;29;20042;-70
2022/12/27 03:07:39;;;;;;;0.38;0.30;;;4.10;99.90;;;;;;4946690;29;20031;-70
2022/12/27 03:16:40;;;;;;;0.15;0.15;;;3.90;99.90;;;;;;4939657;29;20090;-70
2022/12/27 03:27:42;;;;;;;2.03;0.50;;;3.80;99.90;;;;;;4936199;29;20527;-70
2022/12/27 03:33:14;;;;;;;1.45;1.00;;;3.80;99.90;;;;;;4942098;28;20042;-69
2022/12/27 03:38:50;;;;;;;0.50;0.38;;;3.90;99.90;;;;;;4944910;29;20471;-70
2022/12/27 03:44:24;;;;;;;0.85;0.60;;;4.00;99.90;;;;;;4946259;29;20063;-70
2022/12/27 03:46:59;;;;;;;1.58;0.70;;;3.90;99.90;;;;;;4948345;29;20082;-69
2022/12/27 03:50:04;;;;;;;8.20;0.70;;;3.90;99.90;;;;;;4947412;29;20443;-69
2022/12/27 03:53:12;;;;;;;0.75;0.50;;;3.90;99.90;;;;;;4942966;29;20050;-69
2022/12/27 03:55:38;;;;;;;3.55;1.25;;;3.90;99.90;;;;;;4910342;29;20518;-69
2022/12/27 03:58:04;;;;;;;0.98;0.68;;;3.80;99.90;;;;;;4933161;29;20028;-70
2022/12/27 04:00:29;;;;;;;8.35;2.38;;;3.90;99.90;;;;;;4932904;29;20036;-70
2022/12/27 04:02:56;;;;;;;3.47;1.23;;;3.90;99.90;;;;;;4939500;29;20067;-69
2022/12/27 04:05:21;;;;;;;7.63;1.35;;;4.00;99.90;;;;;;4942008;29;20069;-69
2022/12/27 04:35:10;;;;;;;2.22;1.05;;;4.10;99.90;;;;;;4913407;29;20059;-69
2022/12/27 04:37:36;;;;;;;5.75;0.60;;;4.10;99.90;;;;;;4941144;29;20485;-69
2022/12/27 04:56:33;;;;;;;10.27;0.52;;;4.10;99.90;;;;;;4931090;29;20090;-70
2022/12/27 05:04:28;;;;;;;5.72;1.55;;;3.70;99.90;;;;;;4942495;29;20395;-70
2022/12/27 05:06:55;;;;;;;9.88;0.93;;;3.40;99.90;;;;;;4941559;29;20039;-69
2022/12/27 05:14:49;;;;;;;1.02;0.52;;;3.20;99.90;;;;;;4948691;29;20403;-69
2022/12/27 05:17:15;;;;;;;2.50;0.95;;;3.20;99.90;;;;;;4939064;29;20027;-69
2022/12/27 05:19:40;;;;;;;1.15;0.45;;;3.10;99.90;;;;;;4938077;29;20032;-70
2022/12/27 05:27:35;;;;;;;2.08;0.63;;;2.90;99.90;;;;;;4924550;29;20070;-69
2022/12/27 05:30:01;;;;;;;0.75;0.50;;;3.00;99.90;;;;;;4951488;29;20062;-69
2022/12/27 05:32:26;;;;;;;1.52;0.28;;;2.90;99.90;;;;;;4948105;28;20039;-69
2022/12/27 05:34:52;;;;;;;0.85;0.50;;;2.90;99.90;;;;;;4942141;29;20402;-69
2022/12/27 05:37:17;;;;;;;1.45;0.57;;;2.90;99.90;;;;;;4949311;29;20032;-69
2022/12/27 05:39:43;;;;;;;1.23;0.70;;;2.90;99.90;;;;;;4941275;29;20038;-69
2022/12/27 05:42:09;;;;;;;0.30;0.30;;;2.80;99.90;;;;;;4950236;28;20031;-69
2022/12/27 05:44:34;;;;;;;0.93;0.90;;;2.80;99.90;;;;;;4940497;29;20506;-69
2022/12/27 05:47:00;;;;;;;0.30;0.30;;;2.70;99.90;;;;;;4951131;29;20113;-68
2022/12/27 05:49:26;;;;;;;1.30;0.47;;;2.70;99.90;;;;;;4940428;29;20032;-69
2022/12/27 05:51:51;;;;;;;0.88;0.47;;;2.60;99.90;;;;;;4948973;28;20039;-69
2022/12/27 05:54:17;;;;;;;0.70;0.50;;;2.60;99.90;;;;;;4940774;29;20034;-69
2022/12/27 05:56:43;;;;;;;0.73;0.73;;;2.60;99.90;;;;;;4952807;29;20031;-69
2022/12/27 05:59:08;;;;;;;0.68;0.57;;;2.60;99.90;;;;;;4946147;29;20127;-69
2022/12/27 06:01:34;;;;;;;0.60;0.60;;;2.60;99.90;;;;;;4951463;28;20063;-69
2022/12/27 06:04:00;;;;;;;1.55;1.05;;;2.60;99.90;;;;;;4961526;28;20046;-69
2022/12/27 06:06:25;;;;;;;0.47;0.47;;;2.50;99.90;;;;;;4923047;29;20200;-69
2022/12/27 06:08:51;;;;;;;0.93;0.60;;;2.60;99.90;;;;;;4923308;29;20039;-69
2022/12/27 06:11:18;;;;;;;0.55;0.40;;;2.60;99.90;;;;;;4922336;29;20575;-69
2022/12/27 06:13:51;;;;;;;10.32;1.00;;;2.60;99.90;;;;;;4926072;29;20150;-68
2022/12/27 06:16:19;;;;;;;17.13;1.95;;;2.60;99.90;;;;;;4922007;29;20082;-69
2022/12/27 06:18:45;;;;;;;0.43;0.43;;;2.60;99.90;;;;;;4938731;29;20031;-69
2022/12/27 06:21:15;;;;;;;0.40;0.30;;;2.60;99.90;;;;;;4947992;28;20023;-69
2022/12/27 06:23:46;;;;;;;0.65;0.52;;;2.60;99.90;;;;;;4947256;29;20055;-69
2022/12/27 06:26:19;;;;;;;1.17;0.70;;;2.60;99.90;;;;;;4947974;29;20471;-69
2022/12/27 06:28:45;;;;;;;2.75;0.90;;;2.60;99.90;;;;;;4950752;29;20116;-68
2022/12/27 06:31:11;;;;;;;5.88;1.27;;;2.60;99.90;;;;;;4947772;28;20512;-69
2022/12/27 06:33:37;;;;;;;0.40;0.40;;;2.60;99.90;;;;;;4951512;29;20118;-69
2022/12/27 06:36:15;;;;;;;4.47;2.08;;;2.60;99.90;;;;;;4946547;29;20056;-69
2022/12/27 06:38:42;;;;;;;0.60;0.60;;;2.60;99.90;;;;;;4947385;29;20028;-69
2022/12/27 06:41:11;;;;;;;1.70;0.85;;;2.60;99.90;;;;;;4947258;28;20102;-69
2022/12/27 06:43:38;;;;;;;1.27;0.77;;;2.60;99.90;;;;;;4947435;29;20118;-69
2022/12/27 06:46:08;;;;;;;1.40;0.63;;;2.50;99.90;;;;;;4938832;29;20036;-69
2022/12/27 06:48:35;;;;;;;1.70;1.23;;;2.60;99.90;;;;;;4947850;29;20039;-69
2022/12/27 06:51:07;;;;;;;1.50;1.08;;;2.50;99.90;;;;;;4945498;28;20283;-69
2022/12/27 06:53:35;;;;;;;1.55;1.08;;;2.60;99.90;;;;;;4947164;29;20031;-69
2022/12/27 06:56:05;;;;;;;2.80;1.05;;;2.60;99.90;;;;;;4945228;29;20038;-69
2022/12/27 06:58:31;;;;;;;1.85;0.50;;;2.50;99.90;;;;;;4951037;29;20125;-69
2022/12/27 07:00:56;;;;;;;1.73;1.05;;;2.60;99.90;;;;;;4942363;29;20110;-69
2022/12/27 07:03:22;;;;;;;2.05;1.38;;;2.60;99.90;;;;;;4939271;29;20035;-69
2022/12/27 07:05:48;;;;;;;1.38;1.15;;;2.70;99.90;;;;;;4946024;28;20553;-69
2022/12/27 07:08:13;;;;;;;2.72;1.25;;;2.70;99.90;;;;;;4950157;29;20424;-70
2022/12/27 07:10:39;;;;;;;0.85;0.52;;;2.60;99.90;;;;;;4941598;29;20023;-68
2022/12/27 07:13:05;;;;;;;4.70;2.95;;;2.60;99.90;;;;;;4951393;23;20085;-68
2022/12/27 07:15:31;;;;;;;1.40;1.15;;;2.50;99.90;;;;;;4947076;29;20047;-69
2022/12/27 07:17:58;;;;;;;3.80;1.92;;;2.50;99.90;;;;;;4953682;28;20039;-68
2022/12/27 07:20:23;;;;;;;1.25;0.95;;;2.40;99.90;;;;;;4926098;29;20040;-69
2022/12/27 07:22:49;;;;;;;5.55;1.63;;;2.40;99.90;;;;;;4939889;29;20034;-69
2022/12/27 07:25:15;;;;;;;1.55;0.98;;;2.40;99.90;;;;;;4922859;29;20118;-69
2022/12/27 07:27:41;;;;;;;2.85;1.23;;;2.40;99.90;;;;;;4945729;29;20055;-71
2022/12/27 07:30:08;;;;;;;3.03;1.30;;;2.50;99.90;;;;;;4942340;29;20043;-71
2022/12/27 07:32:33;;;;;;;2.10;1.10;;;2.50;99.90;;;;;;4945546;29;20036;-72
2022/12/27 07:34:59;;;;;;;2.78;1.40;;;2.60;99.90;;;;;;4942509;28;20053;-72
2022/12/27 07:37:25;;;;;;;3.70;1.40;;;2.60;99.90;;;;;;4956056;29;20055;-70
2022/12/27 07:39:50;;;;;;;2.13;1.00;;;2.70;99.90;;;;;;4940046;29;20554;-71
2022/12/27 07:42:16;;;;;;;13.55;1.77;;;2.70;99.90;;;;;;4932980;29;20035;-70
2022/12/27 07:44:42;;;;;;;13.63;1.27;;;2.80;99.90;;;;;;4943714;28;20049;-70
2022/12/27 07:47:07;;;;;;;5.82;1.05;;;2.90;99.90;;;;;;4952386;28;20050;-70
2022/12/27 07:49:33;;;;;;;3.13;0.70;;;2.90;99.90;;;;;;4947458;28;20043;-71
2022/12/27 07:51:59;;;;;;;7.65;1.30;;;3.00;99.90;;;;;;4936408;29;20040;-71
2022/12/27 07:54:24;;;;;;;4.00;1.52;;;2.90;99.90;;;;;;4939755;29;20046;-73
2022/12/27 07:56:50;;;;;;;2.28;1.20;;;3.00;99.90;;;;;;4945729;29;20491;-70
2022/12/27 07:59:16;;;;;;;2.85;1.48;;;2.90;99.90;;;;;;4945028;29;20066;-70
2022/12/27 08:04:26;;;;;;;4.18;1.38;;;2.90;99.90;;;;;;4943736;28;20035;-70
2022/12/27 08:07:05;;;;;;;8.32;1.95;;;2.90;99.90;;;;;;4951798;29;20094;-70
2022/12/27 08:09:36;;;;;;;16.55;2.50;;;2.90;99.90;;;;;;4939029;29;20059;-76
2022/12/27 08:12:02;;;;;;;9.00;1.98;;;2.90;99.90;;;;;;4932446;29;20119;-77
2022/12/27 08:14:28;;;;;;;9.90;1.58;;;2.90;99.90;;;;;;4929408;29;20039;-74
2022/12/27 08:17:01;;;;;;;1.65;1.23;;;2.90;99.90;;;;;;4917648;29;20035;-73
2022/12/27 08:19:27;;;;;;;11.13;2.38;;;2.90;99.90;;;;;;4930453;29;20035;-74
2022/12/27 08:21:52;;;;;;;2.80;1.15;;;2.90;99.90;;;;;;4931895;29;20067;-74
2022/12/27 08:24:18;;;;;;;1.35;0.90;;;2.90;99.90;;;;;;4930641;29;20748;-75
2022/12/27 08:26:44;;;;;;;4.45;1.88;;;2.90;99.90;;;;;;4931977;29;20039;-74
2022/12/27 08:29:09;;;;;;;1.90;1.35;;;3.00;99.90;;;;;;4931900;29;20044;-74
2022/12/27 08:31:35;;;;;;;2.42;1.50;;;3.00;99.90;;;;;;4927299;29;20115;-74
2022/12/27 08:34:02;;;;;;;3.17;1.75;;;3.10;99.90;;;;;;4956440;28;20041;-73
2022/12/27 08:36:27;;;;;;;2.40;1.13;;;3.10;99.90;;;;;;4933362;29;20393;-70
2022/12/27 08:38:54;;;;;;;6.72;1.50;;;3.20;99.90;;;;;;4938997;29;20047;-70
2022/12/27 08:41:21;;;;;;;4.78;1.80;;;3.20;99.90;;;;;;4937520;29;20031;-72
2022/12/27 08:43:46;;;;;;;6.50;1.52;;;3.20;99.90;;;;;;4936877;28;20038;-71
2022/12/27 08:46:12;;;;;;;2.50;1.23;;;3.30;99.90;;;;;;4939550;29;20023;-74
2022/12/27 08:48:38;;;;;;;2.33;1.55;;;3.40;99.90;;;;;;4937604;29;20115;-76
2022/12/27 08:51:06;;;;;;;2.17;1.13;;;3.40;99.90;;;;;;4938134;29;20439;-73
2022/12/27 08:53:32;;;;;;;3.60;1.38;;;3.50;99.90;;;;;;4945518;28;20046;-73
2022/12/27 08:55:59;;;;;;;1.55;1.45;;;3.50;99.90;;;;;;4941082;29;20039;-71
2022/12/27 08:58:24;;;;;;;6.75;1.42;;;3.60;99.90;;;;;;4937973;29;20027;-73
2022/12/27 09:00:50;;;;;;;2.63;1.50;;;3.70;99.90;;;;;;4936245;29;20099;-75
2022/12/27 09:03:18;;;;;;;0.98;0.73;;;3.70;99.90;;;;;;4937121;28;20046;-74
2022/12/27 09:05:45;;;;;;;3.05;1.80;;;3.80;99.90;;;;;;4941465;28;20066;-74
2022/12/27 09:08:11;;;;;;;2.88;1.33;;;3.90;99.90;;;;;;4950988;29;20398;-75
2022/12/27 09:10:37;;;;;;;1.25;0.77;;;3.90;99.90;;;;;;4939352;29;20051;-75
2022/12/27 09:13:03;;;;;;;1.42;0.98;;;4.00;99.90;;;;;;4953800;28;20062;-73
2022/12/27 09:15:29;;;;;;;2.65;1.58;;;4.10;99.90;;;;;;4948307;28;20059;-74
2022/12/27 09:17:55;;;;;;;1.25;1.02;;;4.20;99.90;;;;;;4926490;29;20036;-74
2022/12/27 09:20:21;;;;;;;7.05;2.05;;;4.30;99.90;;;;;;4935226;29;20031;-73
2022/12/27 09:22:46;;;;;;;1.83;1.23;;;4.30;99.90;;;;;;4952264;29;20062;-73
2022/12/27 09:25:12;;;;;;;1.98;1.05;;;4.50;99.90;;;;;;4945935;28;20122;-74
2022/12/27 09:27:38;;;;;;;4.32;1.88;;;4.60;99.90;;;;;;4944236;29;20038;-74
2022/12/27 09:30:06;;;;;;;3.60;1.15;;;4.70;99.90;;;;;;4937515;28;20042;-74
2022/12/27 09:32:32;;;;;;;1.67;1.10;;;4.80;99.90;;;;;;4923019;29;20032;-73
2022/12/27 09:34:58;;;;;;;3.08;1.25;;;4.90;99.90;;;;;;4947497;29;20054;-74
2022/12/27 09:37:24;;;;;;;7.10;1.55;;;5.00;99.90;;;;;;4941215;29;20066;-74
2022/12/27 09:39:50;;;;;;;5.78;1.50;;;5.00;99.90;;;;;;4969083;28;20035;-75
2022/12/27 09:42:37;;;;;;;1.15;1.05;;;5.20;99.90;;;;;;4944475;29;20095;-73
2022/12/27 09:45:24;;;;;;;3.40;1.27;;;5.40;99.90;;;;;;4954026;28;20026;-71
2022/12/27 09:48:31;;;;;;;1.67;0.82;;;5.40;99.90;;;;;;4941297;29;20040;-73
2022/12/27 09:51:05;;;;;;;8.88;1.98;;;5.60;99.90;;;;;;4934289;28;20055;-71
2022/12/27 09:54:01;;;;;;;5.68;3.35;;;5.80;99.90;;;;;;4937236;28;20684;-76
2022/12/27 09:56:31;;;;;;;2.35;1.23;;;6.20;99.90;;;;;;4924564;29;20043;-72
2022/12/27 09:59:34;;;;;;;6.03;2.05;;;7.00;99.90;;;;;;4932231;29;20046;-74
2022/12/27 10:02:00;;;;;;;3.58;1.77;;;7.70;99.90;;;;;;4928081;29;20040;-73
2022/12/27 10:04:33;;;;;;;5.43;1.45;;;8.00;99.90;;;;;;4939197;29;20041;-69
2022/12/27 10:07:54;;;;;;;5.18;2.13;;;8.90;99.90;;;;;;4941522;29;20031;-74
2022/12/27 10:10:39;;;;;;;3.05;1.30;;;8.60;99.90;;;;;;4937831;29;20037;-75
2022/12/27 10:13:45;;;;;;;2.80;1.30;;;8.40;99.90;;;;;;4926830;29;20023;-74
2022/12/27 10:16:42;;;;;;;9.50;1.23;;;8.60;99.90;;;;;;4941737;29;20077;-76
2022/12/27 10:19:54;;;;;;;8.43;1.45;;;9.00;99.90;;;;;;4939933;29;20102;-75
2022/12/27 10:22:32;;;;;;;;;;;9.50;99.90;;;;;;4933855;29;20396;-76
2022/12/27 10:25:03;;;;;;;4.05;1.80;;;9.30;99.90;;;;;;4928260;29;19915;-76
2022/12/27 10:27:29;;;;;;;1.83;1.00;;;9.10;99.90;;;;;;4931430;29;20038;-73
2022/12/27 10:29:58;;;;;;;8.60;1.67;;;9.30;99.90;;;;;;4956498;28;20411;-79
2022/12/27 10:32:24;;;;;;;3.97;1.05;;;8.60;99.90;;;;;;4941194;29;20031;-82
2022/12/27 10:34:58;;;;;;;3.60;1.67;;;8.80;99.90;;;;;;4935662;28;20107;-76
2022/12/27 10:37:24;;;;;;;3.78;0.98;;;7.90;99.90;;;;;;4940911;29;20035;-74
2022/12/27 10:39:50;;;;;;;2.75;1.13;;;7.80;99.90;;;;;;4938086;29;20040;-74
2022/12/27 10:42:36;;;;;;;4.43;1.58;;;7.80;99.90;;;;;;4935376;29;20492;-74
2022/12/27 10:45:35;;;;;;;9.23;1.35;;;7.90;99.90;;;;;;4931274;29;20035;-76
2022/12/27 10:48:24;;;;;;;7.72;1.70;;;8.40;99.90;;;;;;4947533;28;20035;-79
2022/12/27 10:51:00;;;;;;;2.13;0.82;;;9.00;99.90;;;;;;4942157;29;20119;-74
2022/12/27 10:53:33;;;;;;;3.92;1.10;;;8.30;99.90;;;;;;4932196;29;20038;-74
2022/12/27 10:56:25;;;;;;;1.70;0.88;;;8.70;99.90;;;;;;4938459;29;20541;-74
2022/12/27 10:59:10;;;;;;;1.75;0.80;;;8.60;99.90;;;;;;4942022;29;20043;-73
2022/12/27 11:01:36;;;;;;;4.70;1.13;;;8.50;99.90;;;;;;4934136;29;20032;-74
2022/12/27 11:04:19;;;;;;;3.72;1.20;;;8.90;99.90;;;;;;4936414;29;20487;-74
2022/12/27 11:07:10;;;;;;;5.82;1.02;;;9.20;99.90;;;;;;4946002;29;20043;-73
2022/12/27 11:09:42;;;;;;;2.33;0.98;;;9.50;99.90;;;;;;4950045;29;20101;-74
2022/12/27 11:12:27;;;;;;;5.43;1.35;;;9.30;99.90;;;;;;4933552;29;20039;-75
2022/12/27 11:15:08;;;;;;;1.60;0.73;;;9.80;99.90;;;;;;4952352;28;20027;-74
2022/12/27 11:17:49;;;;;;;1.92;0.70;;;9.70;99.90;;;;;;4945575;29;20039;-74
2022/12/27 11:20:31;;;;;;;3.20;1.23;;;10.20;99.90;;;;;;4940244;29;20073;-66
2022/12/27 11:23:10;;;;;;;1.77;0.95;;;10.30;99.90;;;;;;4935708;29;20042;-66
2022/12/27 11:25:52;;;;;;;1.90;1.10;;;9.50;99.90;;;;;;4941097;29;20059;-66
2022/12/27 11:28:33;;;;;;;5.38;0.70;;;9.20;99.90;;;;;;4955909;28;20031;-75
2022/12/27 11:31:08;;;;;;;0.93;0.73;;;8.90;99.90;;;;;;4934474;29;20043;-74
2022/12/27 11:41:50;;;;;;;2.45;0.80;;;8.50;99.90;;;;;;4848315;29;20406;-75
2022/12/27 11:44:37;;;;;;;2.80;0.85;;;9.20;99.90;;;;;;4928511;28;20094;-76
2022/12/27 11:47:25;;;;;;;2.03;0.90;;;9.90;99.90;;;;;;4950622;29;20034;-74
2022/12/27 11:50:26;;;;;;;4.57;0.90;;;10.50;99.90;;;;;;4936802;29;20475;-75
2022/12/27 11:53:28;;;;;;;0.40;0.38;;;11.60;99.90;;;;;;4938365;29;20028;-79
2022/12/27 11:56:27;;;;;;;4.05;0.63;;;10.70;99.90;;;;;;4942678;29;20032;-74
2022/12/27 11:58:53;;;;;;;3.00;0.82;;;11.60;99.90;;;;;;4963620;28;20038;-73
2022/12/27 12:01:58;;;;;;;2.83;0.75;;;11.70;99.90;;;;;;4946914;29;20035;-73
2022/12/27 12:04:59;;;;;;;0.98;0.40;;;11.90;99.90;;;;;;4930708;28;20509;-73
2022/12/27 12:07:43;;;;;;;1.48;0.80;;;11.10;99.90;;;;;;4942411;29;20043;-74
2022/12/27 12:10:32;;;;;;;1.48;0.70;;;9.90;99.90;;;;;;4941247;29;20031;-73
2022/12/27 12:13:16;;;;;;;4.63;0.50;;;10.00;99.90;;;;;;4948339;28;20032;-73
2022/12/27 12:16:24;;;;;;;0.73;0.65;;;9.80;99.90;;;;;;4944369;29;20097;-74
2022/12/27 12:19:35;;;;;;;10.70;0.73;;;9.40;99.90;;;;;;4949016;29;20086;-73
2022/12/27 12:22:19;;;;;;;1.48;0.50;;;9.00;99.90;;;;;;4935797;29;20039;-75
2022/12/27 12:25:22;;;;;;;6.78;1.02;;;8.60;99.90;;;;;;4944481;29;20116;-69
2022/12/27 12:28:12;;;;;;;6.75;1.40;;;9.10;99.90;;;;;;4949514;29;20034;-73
2022/12/27 12:31:01;;;;;;;2.38;0.80;;;11.10;99.90;;;;;;4936006;29;20028;-74
2022/12/27 12:33:54;;;;;;;10.52;0.95;;;11.30;99.90;;;;;;4942369;28;20031;-71
2022/12/27 12:36:46;;;;;;;1.00;0.55;;;10.40;99.90;;;;;;4937004;29;20553;-70
2022/12/27 12:39:46;;;;;;;1.40;0.80;;;10.30;99.90;;;;;;4949653;28;20037;-73
2022/12/27 12:42:34;;;;;;;4.05;0.93;;;10.20;99.90;;;;;;4925411;29;20175;-74
2022/12/27 12:45:33;;;;;;;2.30;1.02;;;10.20;99.90;;;;;;4949584;28;20119;-75
2022/12/27 12:48:31;;;;;;;2.10;0.63;;;9.40;99.90;;;;;;4936776;29;20053;-75
2022/12/27 12:51:02;;;;;;;0.80;0.60;;;8.90;99.90;;;;;;4932345;29;20504;-76
2022/12/27 12:54:21;;;;;;;4.47;0.90;;;9.00;99.90;;;;;;4939816;29;20035;-78
2022/12/27 12:56:57;;;;;;;1.05;0.68;;;8.80;99.90;;;;;;4939088;28;20039;-76
2022/12/27 12:59:44;;;;;;;1.70;0.90;;;9.10;99.90;;;;;;4947178;29;20531;-76
2022/12/27 13:02:59;;;;;;;5.22;0.70;;;8.60;99.90;;;;;;4942918;29;20035;-76
2022/12/27 13:05:51;;;;;;;0.68;0.52;;;8.70;99.90;;;;;;4917083;29;20050;-78
2022/12/27 13:08:34;;;;;;;7.22;0.60;;;8.70;99.90;;;;;;4929374;29;20043;-76
2022/12/27 13:11:12;;;;;;;2.75;1.35;;;8.30;99.90;;;;;;4942094;29;20039;-76
2022/12/27 13:13:49;;;;;;;9.40;1.33;;;8.00;99.90;;;;;;4940033;23;21256;-73
2022/12/27 13:16:41;;;;;;;1.25;0.98;;;8.40;99.90;;;;;;4937804;29;20031;-74
2022/12/27 13:19:44;;;;;;;3.00;0.80;;;8.70;99.90;;;;;;4928237;29;20028;-74
2022/12/27 13:22:33;;;;;;;1.73;1.08;;;8.50;99.90;;;;;;4933718;29;20031;-74
2022/12/27 13:25:50;;;;;;;4.63;1.00;;;8.50;99.90;;;;;;4939166;29;20725;-74
2022/12/27 13:28:22;;;;;;;5.30;1.33;;;8.40;99.90;;;;;;4924856;29;20039;-74
2022/12/27 13:31:19;;;;;;;6.80;1.58;;;8.40;99.90;;;;;;4939197;29;20478;-74
2022/12/27 13:34:05;;;;;;;3.10;0.90;;;8.50;99.90;;;;;;4940031;29;20051;-74
2022/12/27 13:37:11;;;;;;;4.93;1.25;;;8.80;99.90;;;;;;4903149;29;20074;-73
2022/12/27 13:40:01;;;;;;;4.30;0.70;;;9.50;99.90;;;;;;4925056;28;20036;-73
2022/12/27 13:42:43;;;;;;;0.88;0.65;;;9.50;99.90;;;;;;4937399;28;20024;-72
2022/12/27 13:45:37;;;;;;;6.00;0.95;;;9.30;99.90;;;;;;4936102;29;20035;-72
2022/12/27 13:48:52;;;;;;;2.72;0.65;;;9.20;99.90;;;;;;4952050;29;20134;-72
2022/12/27 13:51:47;;;;;;;2.50;1.08;;;8.80;99.90;;;;;;4934794;29;20110;-73
2022/12/27 13:54:49;;;;;;;0.90;0.73;;;8.90;99.90;;;;;;4935574;29;20023;-72
2022/12/27 13:57:52;;;;;;;3.70;1.05;;;8.70;99.90;;;;;;4939436;29;20398;-72
2022/12/27 14:00:22;;;;;;;2.80;1.23;;;8.70;99.90;;;;;;4942850;29;20031;-72
2022/12/27 14:03:44;;;;;;;5.25;0.65;;;8.80;99.90;;;;;;4948512;29;20082;-73
2022/12/27 14:06:43;;;;;;;0.95;0.65;;;9.10;99.90;;;;;;4933382;29;20050;-72
2022/12/27 14:09:33;;;;;;;4.05;1.23;;;9.40;99.90;;;;;;4936773;29;20035;-72
2022/12/27 14:12:26;;;;;;;3.30;0.88;;;9.30;99.90;;;;;;4939162;29;20040;-72
2022/12/27 14:14:55;;;;;;;0.55;0.40;;;9.50;99.90;;;;;;4931813;29;20041;-72
2022/12/27 14:17:45;;;;;;;2.60;0.70;;;10.30;99.90;;;;;;4947821;29;20086;-72
2022/12/27 14:20:58;;;;;;;4.05;0.93;;;10.20;99.90;;;;;;4946271;29;20495;-72
2022/12/27 14:23:38;;;;;;;3.28;0.75;;;10.40;99.90;;;;;;4913358;29;20230;-72
2022/12/27 14:27:07;;;;;;;4.97;1.67;;;9.80;99.90;;;;;;4935875;29;20036;-72
2022/12/27 14:29:44;;;;;;;1.00;0.65;;;9.40;99.90;;;;;;4879971;29;20088;-72
2022/12/27 14:32:38;;;;;;;3.88;1.17;;;9.60;99.90;;;;;;4939515;29;20145;-72
2022/12/27 14:35:36;;;;;;;3.20;1.50;;;9.70;99.90;;;;;;4947183;28;20411;-71
2022/12/27 14:38:52;;;;;;;2.45;0.82;;;10.10;99.90;;;;;;4954441;29;20495;-71
2022/12/27 14:41:59;;;;;;;2.08;0.88;;;9.50;99.90;;;;;;4926529;29;20043;-71
2022/12/27 14:45:11;;;;;;;3.90;1.05;;;9.50;99.90;;;;;;4920973;29;20045;-71
2022/12/27 14:47:42;;;;;;;0.55;0.30;;;9.20;99.90;;;;;;4947865;29;20035;-72
2022/12/27 14:50:58;;;;;;;1.00;0.40;;;9.10;99.90;;;;;;4945469;29;20047;-71
2022/12/27 14:53:44;;;;;;;0.88;0.40;;;8.80;99.90;;;;;;4917796;29;20544;-72
2022/12/27 14:56:36;;;;;;;3.80;0.70;;;8.70;99.90;;;;;;4935932;29;20110;-73
2022/12/27 14:59:05;;;;;;;0.65;0.60;;;8.70;99.90;;;;;;4937114;29;20590;-73
2022/12/27 15:01:58;;;;;;;4.70;0.88;;;8.60;99.90;;;;;;4946401;29;20035;-73
2022/12/27 15:04:37;;;;;;;0.63;0.45;;;8.40;99.90;;;;;;4950116;28;20027;-71
2022/12/27 15:07:50;;;;;;;1.65;0.80;;;8.20;99.90;;;;;;4946059;29;20039;-71
2022/12/27 15:10:34;;;;;;;0.50;0.40;;;8.00;99.90;;;;;;4943166;29;20487;-72
2022/12/27 15:13:12;;;;;;;2.63;1.25;;;7.90;99.90;;;;;;4934817;29;20070;-72
2022/12/27 15:16:14;;;;;;;8.43;0.98;;;7.70;99.90;;;;;;4928569;29;20032;-74
2022/12/27 15:18:59;;;;;;;2.90;0.95;;;7.60;99.90;;;;;;4938368;29;20035;-76
2022/12/27 15:21:49;;;;;;;1.65;1.17;;;7.50;99.90;;;;;;4941035;29;20043;-73
2022/12/27 15:24:38;;;;;;;7.20;0.63;;;7.40;99.90;;;;;;4932821;29;20049;-75
2022/12/27 15:27:31;;;;;;;7.80;1.05;;;7.30;99.90;;;;;;4938247;29;20834;-74
2022/12/27 15:30:25;;;;;;;4.97;1.38;;;7.20;99.90;;;;;;4938808;29;20043;-74
2022/12/27 15:33:32;;;;;;;3.13;0.85;;;7.10;99.90;;;;;;4947914;29;20051;-74
2022/12/27 15:36:04;;;;;;;2.50;1.52;;;7.00;99.90;;;;;;4941515;29;20031;-73
2022/12/27 15:38:39;;;;;;;9.80;1.73;;;6.90;99.90;;;;;;4957840;28;20034;-71
2022/12/27 15:41:13;;;;;;;2.10;1.00;;;6.80;99.90;;;;;;4934934;29;20438;-71
2022/12/27 15:44:03;;;;;;;5.50;1.27;;;6.70;99.90;;;;;;4932356;29;20027;-71
2022/12/27 15:47:06;;;;;;;0.68;0.45;;;6.70;99.90;;;;;;4950364;29;20039;-66
2022/12/27 15:49:40;;;;;;;1.90;0.95;;;6.60;99.90;;;;;;4932675;29;20046;-65
2022/12/27 15:52:27;;;;;;;2.78;0.90;;;6.60;99.90;;;;;;4936891;29;20036;-66